createdAt,value
2023-02-23T00:01:02.677Z,58.90
2023-02-23T00:03:05.737Z,52.00
2023-02-23T00:05:09.338Z,51.90
2023-02-23T00:07:13.602Z,45.63
2023-02-23T00:09:23.397Z,50.47
2023-02-23T00:11:28.026Z,53.83
2023-02-23T00:13:31.867Z,57.13
2023-02-23T00:15:34.743Z,57.63
2023-02-23T00:17:41.168Z,54.17
2023-02-23T00:19:44.506Z,55.90
2023-02-23T00:21:47.404Z,60.53
2023-02-23T00:23:53.116Z,61.83
2023-02-23T00:25:59.618Z,55.93
2023-02-23T00:28:02.601Z,49.47
2023-02-23T00:30:07.261Z,57.20
2023-02-23T00:32:10.294Z,53.50
2023-02-23T00:34:15.094Z,50.23
2023-02-23T00:36:18.192Z,58.63
2023-02-23T00:38:21.145Z,63.27
2023-02-23T00:40:25.664Z,57.77
2023-02-23T00:42:32.326Z,51.53
2023-02-23T00:44:40.595Z,56.57
2023-02-23T00:46:44.211Z,54.60
2023-02-23T00:48:47.471Z,54.03
2023-02-23T00:50:59.315Z,58.13
2023-02-23T00:53:02.205Z,55.63
2023-02-23T00:55:06.539Z,61.30
2023-02-23T00:57:11.090Z,60.93
2023-02-23T00:59:14.899Z,67.10
2023-02-23T01:01:18.613Z,65.10
2023-02-23T01:03:21.729Z,70.90
2023-02-23T01:05:24.950Z,60.60
2023-02-23T01:07:30.115Z,62.90
2023-02-23T01:09:34.122Z,62.67
2023-02-23T01:11:37.215Z,67.77
2023-02-23T01:13:43.047Z,65.93
2023-02-23T01:15:48.260Z,66.60
2023-02-23T01:17:51.376Z,69.40
2023-02-23T01:19:55.222Z,69.53
2023-02-23T01:21:58.199Z,64.33
2023-02-23T01:24:02.234Z,67.67
2023-02-23T01:26:05.427Z,73.27
2023-02-23T01:28:09.069Z,61.90
2023-02-23T01:30:16.655Z,68.00
2023-02-23T01:32:20.306Z,72.50
2023-02-23T01:34:23.219Z,72.93
2023-02-23T01:36:28.972Z,75.17
2023-02-23T01:38:31.980Z,67.60
2023-02-23T01:40:37.118Z,76.93
2023-02-23T01:42:42.174Z,75.00
2023-02-23T01:45:21.031Z,64.40
2023-02-23T01:47:26.826Z,80.00
2023-02-23T01:49:31.128Z,70.60
2023-02-23T01:51:37.526Z,72.00
2023-02-23T01:53:44.347Z,62.73
2023-02-23T01:55:50.906Z,72.03
2023-02-23T01:57:56.976Z,67.80
2023-02-23T02:00:00.213Z,84.03
2023-02-23T02:02:05.485Z,80.60
2023-02-23T02:04:09.353Z,76.73
2023-02-23T02:06:15.246Z,71.97
2023-02-23T02:08:19.183Z,81.73
2023-02-23T02:10:39.632Z,78.13
2023-02-23T02:12:44.870Z,83.77
2023-02-23T02:14:48.045Z,76.60
2023-02-23T02:17:06.875Z,79.93
2023-02-23T02:19:33.661Z,82.90
2023-02-23T02:22:27.057Z,79.60
2023-02-23T02:25:04.485Z,83.30
2023-02-23T02:27:26.852Z,83.87
2023-02-23T02:29:52.341Z,77.43
2023-02-23T02:32:19.816Z,88.93
2023-02-23T02:34:49.815Z,75.40
2023-02-23T02:37:19.086Z,84.20
2023-02-23T02:39:34.990Z,75.83
2023-02-23T02:41:51.415Z,79.53
2023-02-23T02:43:59.426Z,87.13
2023-02-23T02:46:06.235Z,86.00
2023-02-23T02:48:18.392Z,88.77
2023-02-23T02:50:25.571Z,91.50
2023-02-23T02:52:32.418Z,81.70
2023-02-23T02:54:39.630Z,82.67
2023-02-23T02:56:44.561Z,91.03
2023-02-23T02:58:50.956Z,82.53
2023-02-23T03:01:12.098Z,76.73
2023-02-23T03:03:47.388Z,81.33
2023-02-23T03:06:09.471Z,83.80
2023-02-23T03:08:37.753Z,80.13
2023-02-23T03:11:04.971Z,86.37
2023-02-23T03:13:34.347Z,88.00
2023-02-23T03:16:00.149Z,87.80
2023-02-23T03:18:31.882Z,81.83
2023-02-23T03:21:00.973Z,85.40
2023-02-23T03:23:28.388Z,75.80
2023-02-23T03:25:54.099Z,87.13
2023-02-23T03:28:18.319Z,91.20
2023-02-23T03:30:42.236Z,86.00
2023-02-23T03:33:07.879Z,84.50
2023-02-23T03:35:33.164Z,85.53
2023-02-23T03:37:58.106Z,79.13
2023-02-23T03:40:24.609Z,94.00
2023-02-23T03:42:50.598Z,77.77
2023-02-23T03:45:11.727Z,80.50
2023-02-23T03:47:34.282Z,82.50
2023-02-23T03:49:57.710Z,81.33
2023-02-23T03:52:22.882Z,86.70
2023-02-23T03:54:46.550Z,81.73
2023-02-23T03:57:09.659Z,78.10
2023-02-23T03:59:33.062Z,83.23
2023-02-23T04:01:54.367Z,70.83
2023-02-23T04:04:16.337Z,77.27
2023-02-23T04:06:37.810Z,74.70
2023-02-23T04:08:58.809Z,73.17
2023-02-23T04:11:24.201Z,84.23
2023-02-23T04:13:27.404Z,73.40
2023-02-23T04:15:33.170Z,87.73
2023-02-23T04:17:36.559Z,83.80
2023-02-23T04:19:39.579Z,78.20
2023-02-23T04:21:42.582Z,71.77
2023-02-23T04:23:45.682Z,75.23
2023-02-23T04:25:49.221Z,78.10
2023-02-23T04:27:53.347Z,78.03
2023-02-23T04:29:57.673Z,73.37
2023-02-23T04:32:02.041Z,81.63
2023-02-23T04:34:05.632Z,84.07
2023-02-23T04:36:09.049Z,86.80
2023-02-23T04:38:12.073Z,75.73
2023-02-23T04:40:15.425Z,84.17
2023-02-23T04:42:19.363Z,88.37
2023-02-23T04:44:22.577Z,85.17
2023-02-23T04:46:25.910Z,88.70
2023-02-23T04:48:30.214Z,84.73
2023-02-23T04:50:33.292Z,101.23
2023-02-23T04:52:37.618Z,108.60
2023-02-23T04:54:41.816Z,104.00
2023-02-23T04:56:44.992Z,93.73
2023-02-23T04:58:47.970Z,96.13
2023-02-23T05:00:51.477Z,97.47
2023-02-23T05:02:54.860Z,85.10
2023-02-23T05:05:00.754Z,111.87
2023-02-23T05:07:04.644Z,110.77
2023-02-23T05:09:07.794Z,108.93
2023-02-23T05:11:11.218Z,109.43
2023-02-23T05:13:14.125Z,104.10
2023-02-23T05:15:17.530Z,99.60
2023-02-23T05:17:20.506Z,93.97
2023-02-23T05:19:24.038Z,109.27
2023-02-23T05:21:28.587Z,82.13
2023-02-23T05:23:32.069Z,86.97
2023-02-23T05:25:35.752Z,88.60
2023-02-23T05:27:38.747Z,88.03
2023-02-23T05:29:41.722Z,95.73
2023-02-23T05:31:44.870Z,93.77
2023-02-23T05:33:48.000Z,101.70
2023-02-23T05:35:51.222Z,100.50
2023-02-23T05:37:55.562Z,84.97
2023-02-23T05:39:58.564Z,89.33
2023-02-23T05:42:01.459Z,96.40
2023-02-23T05:44:04.925Z,89.17
2023-02-23T05:46:08.542Z,95.47
2023-02-23T05:48:14.058Z,83.90
2023-02-23T05:50:18.558Z,89.03
2023-02-23T05:52:21.593Z,91.23
2023-02-23T05:54:25.951Z,96.63
2023-02-23T05:56:29.140Z,95.80
2023-02-23T05:58:32.562Z,89.77
2023-02-23T06:00:35.516Z,89.50
2023-02-23T06:02:38.581Z,99.60
2023-02-23T06:04:41.983Z,94.37
2023-02-23T06:06:45.450Z,94.20
2023-02-23T06:08:48.461Z,97.53
2023-02-23T06:10:52.945Z,86.20
2023-02-23T06:12:56.237Z,82.17
2023-02-23T06:14:59.214Z,81.00
2023-02-23T06:17:02.269Z,98.60
2023-02-23T06:19:05.278Z,95.30
2023-02-23T06:21:08.660Z,91.67
2023-02-23T06:23:12.138Z,93.90
2023-02-23T06:25:15.214Z,94.93
2023-02-23T06:27:19.572Z,83.87
2023-02-23T06:29:23.815Z,93.60
2023-02-23T06:31:26.824Z,96.87
2023-02-23T06:33:29.952Z,89.17
2023-02-23T06:35:33.308Z,93.27
2023-02-23T06:37:36.745Z,88.17
2023-02-23T06:39:40.215Z,91.10
2023-02-23T06:41:43.680Z,99.67
2023-02-23T06:43:48.284Z,98.37
2023-02-23T06:45:52.478Z,100.47
2023-02-23T06:47:56.986Z,99.80
2023-02-23T06:50:02.029Z,97.87
2023-02-23T06:52:05.138Z,92.87
2023-02-23T06:54:08.284Z,107.03
2023-02-23T06:56:12.779Z,99.83
2023-02-23T06:58:15.901Z,100.50
2023-02-23T07:00:21.504Z,99.57
2023-02-23T07:02:24.837Z,114.70
2023-02-23T07:04:27.809Z,107.60
2023-02-23T07:06:31.467Z,101.90
2023-02-23T07:08:34.958Z,112.70
2023-02-23T07:10:37.921Z,99.27
2023-02-23T07:12:41.055Z,109.17
2023-02-23T07:14:44.250Z,91.67
2023-02-23T07:16:48.952Z,102.67
2023-02-23T07:18:52.390Z,107.33
2023-02-23T07:20:55.456Z,101.60
2023-02-23T07:22:58.436Z,96.73
2023-02-23T07:25:01.758Z,107.77
2023-02-23T07:27:04.932Z,109.43
2023-02-23T07:29:08.028Z,96.23
2023-02-23T07:31:11.083Z,97.03
2023-02-23T07:33:15.516Z,102.33
2023-02-23T07:35:18.671Z,104.20
2023-02-23T07:37:21.706Z,98.00
2023-02-23T07:39:25.634Z,111.60
2023-02-23T07:41:28.689Z,102.23
2023-02-23T07:43:32.020Z,116.07
2023-02-23T07:45:35.350Z,98.27
2023-02-23T07:47:39.530Z,105.70
2023-02-23T07:49:43.868Z,107.70
2023-02-23T07:51:47.379Z,103.47
2023-02-23T07:53:50.798Z,99.20
2023-02-23T07:56:18.499Z,93.97
2023-02-23T07:58:21.461Z,94.67
2023-02-23T08:00:27.519Z,98.50
2023-02-23T08:02:32.231Z,90.23
2023-02-23T08:04:35.327Z,99.83
2023-02-23T08:06:39.791Z,98.67
2023-02-23T08:08:43.086Z,96.10
2023-02-23T08:10:46.149Z,92.50
2023-02-23T08:12:49.506Z,98.93
2023-02-23T08:14:52.819Z,92.00
2023-02-23T08:16:55.772Z,88.17
2023-02-23T08:18:59.906Z,91.37
2023-02-23T08:21:05.351Z,91.13
2023-02-23T08:23:11.593Z,94.30
2023-02-23T08:25:14.620Z,93.00
2023-02-23T08:27:17.611Z,96.77
2023-02-23T08:29:21.462Z,96.33
2023-02-23T08:31:25.401Z,96.73
2023-02-23T08:33:28.567Z,101.80
2023-02-23T08:35:32.146Z,110.90
2023-02-23T08:37:35.469Z,100.40
2023-02-23T08:39:40.488Z,92.73
2023-02-23T08:41:44.494Z,96.93
2023-02-23T08:43:47.572Z,103.73
2023-02-23T08:45:50.467Z,105.97
2023-02-23T08:47:55.745Z,98.77
2023-02-23T08:49:58.858Z,102.13
2023-02-23T08:52:01.855Z,110.97
2023-02-23T08:54:04.892Z,102.33
2023-02-23T08:56:10.037Z,94.07
2023-02-23T08:58:15.314Z,96.07
2023-02-23T09:00:19.249Z,85.93
2023-02-23T09:02:24.043Z,87.40
2023-02-23T09:04:32.665Z,77.63
2023-02-23T09:06:36.262Z,88.30
2023-02-23T09:08:39.441Z,81.37
2023-02-23T09:10:43.861Z,88.27
2023-02-23T09:12:48.465Z,79.17
2023-02-23T09:14:53.916Z,84.33
2023-02-23T09:16:56.877Z,76.57
2023-02-23T09:19:01.436Z,75.80
2023-02-23T09:21:08.703Z,73.00
2023-02-23T09:23:11.992Z,73.83
2023-02-23T09:25:18.267Z,62.40
2023-02-23T09:27:21.295Z,51.20
2023-02-23T09:29:25.635Z,50.53
2023-02-23T09:31:29.227Z,59.23
2023-02-23T09:33:32.234Z,62.90
2023-02-23T09:35:36.319Z,56.97
2023-02-23T09:37:39.390Z,66.77
2023-02-23T09:39:43.600Z,71.20
2023-02-23T09:42:00.323Z,68.20
2023-02-23T09:44:05.054Z,71.00
2023-02-23T09:46:19.926Z,65.30
2023-02-23T09:48:24.909Z,67.77
2023-02-23T09:50:29.867Z,71.37
2023-02-23T09:52:40.297Z,65.30
2023-02-23T09:54:44.297Z,67.00
2023-02-23T09:56:48.752Z,64.23
2023-02-23T09:58:51.787Z,64.37
2023-02-23T10:01:18.110Z,64.80
2023-02-23T10:03:26.026Z,58.77
2023-02-23T10:05:31.752Z,59.27
2023-02-23T10:07:44.765Z,66.80
2023-02-23T10:10:01.890Z,64.00
2023-02-23T10:12:08.852Z,63.53
2023-02-23T10:14:25.483Z,62.47
2023-02-23T10:16:39.501Z,61.23
2023-02-23T10:18:50.136Z,54.00
2023-02-23T10:21:00.190Z,59.93
2023-02-23T10:23:06.924Z,55.30
2023-02-23T10:25:13.892Z,58.27
2023-02-23T10:27:18.653Z,60.70
2023-02-23T10:29:24.819Z,60.00
2023-02-23T10:31:32.442Z,54.80
2023-02-23T10:33:38.449Z,54.07
2023-02-23T10:35:43.086Z,56.90
2023-02-23T10:37:46.767Z,50.67
2023-02-23T10:39:51.533Z,54.23
2023-02-23T10:41:54.870Z,53.03
2023-02-23T10:44:02.592Z,50.00
2023-02-23T10:46:21.158Z,55.07
2023-02-23T10:48:26.359Z,55.43
2023-02-23T10:50:30.679Z,55.10
2023-02-23T10:52:41.710Z,51.60
2023-02-23T10:54:47.961Z,54.10
2023-02-23T10:56:51.440Z,56.20
2023-02-23T10:58:55.756Z,52.77
2023-02-23T11:01:10.676Z,55.27
2023-02-23T11:03:29.384Z,50.37
2023-02-23T11:05:38.725Z,64.80
2023-02-23T11:07:45.174Z,47.53
2023-02-23T11:09:49.534Z,45.27
2023-02-23T11:12:00.124Z,46.57
2023-02-23T11:14:18.046Z,47.17
2023-02-23T11:16:23.157Z,45.97
2023-02-23T11:18:26.483Z,46.53
2023-02-23T11:20:33.531Z,44.87
2023-02-23T11:22:38.150Z,50.10
2023-02-23T11:24:42.765Z,40.83
2023-02-23T11:26:47.362Z,52.80
2023-02-23T11:28:52.888Z,53.23
2023-02-23T11:30:55.979Z,48.77
2023-02-23T11:33:02.569Z,49.53
2023-02-23T11:35:29.077Z,45.93
2023-02-23T11:37:33.464Z,50.53
2023-02-23T11:39:38.670Z,48.33
2023-02-23T11:41:43.466Z,45.60
2023-02-23T11:43:49.356Z,42.57
2023-02-23T11:45:53.604Z,46.13
2023-02-23T11:47:59.361Z,38.23
2023-02-23T11:50:04.951Z,43.30
2023-02-23T11:52:14.052Z,39.80
2023-02-23T11:54:22.787Z,37.20
2023-02-23T11:56:26.928Z,35.90
2023-02-23T11:58:37.109Z,37.00
2023-02-23T12:00:40.124Z,38.77
2023-02-23T12:02:51.638Z,36.50
2023-02-23T12:05:02.675Z,31.57
2023-02-23T12:07:25.373Z,34.70
2023-02-23T12:09:32.724Z,48.37
2023-02-23T12:11:39.517Z,54.77
2023-02-23T12:13:47.555Z,58.03
2023-02-23T12:15:54.824Z,60.50
2023-02-23T12:18:00.294Z,68.07
2023-02-23T12:20:06.886Z,59.97
2023-02-23T12:22:13.873Z,67.80
2023-02-23T12:24:20.718Z,57.27
2023-02-23T12:26:26.618Z,59.00
2023-02-23T12:28:34.934Z,55.77
2023-02-23T12:30:45.330Z,54.57
2023-02-23T12:32:53.818Z,58.47
2023-02-23T12:35:00.842Z,55.13
2023-02-23T12:37:15.335Z,56.80
2023-02-23T12:39:24.476Z,51.00
2023-02-23T12:41:35.380Z,54.03
2023-02-23T12:43:51.524Z,54.27
2023-02-23T12:45:59.330Z,51.40
2023-02-23T12:48:07.887Z,56.37
2023-02-23T12:50:13.360Z,57.57
2023-02-23T12:52:20.235Z,54.63
2023-02-23T12:54:23.165Z,47.73
2023-02-23T12:56:35.607Z,55.03
2023-02-23T12:58:42.411Z,58.70
2023-02-23T13:00:52.561Z,45.87
2023-02-23T13:03:27.857Z,52.83
2023-02-23T13:05:34.051Z,54.50
2023-02-23T13:07:42.810Z,55.67
2023-02-23T13:09:53.104Z,46.97
2023-02-23T13:12:15.134Z,53.30
2023-02-23T13:14:22.747Z,50.07
2023-02-23T13:16:30.866Z,50.87
2023-02-23T13:18:38.922Z,47.37
2023-02-23T13:20:45.403Z,52.80
2023-02-23T13:22:51.644Z,51.83
2023-02-23T13:24:58.171Z,53.73
2023-02-23T13:27:04.358Z,47.90
2023-02-23T13:29:12.084Z,44.90
2023-02-23T13:31:24.342Z,37.60
2023-02-23T13:33:41.870Z,39.10
2023-02-23T13:35:48.667Z,35.53
2023-02-23T13:37:56.791Z,39.27
2023-02-23T13:40:06.780Z,41.10
2023-02-23T13:42:20.088Z,37.07
2023-02-23T13:44:28.462Z,33.57
2023-02-23T13:46:41.050Z,38.40
2023-02-23T13:48:57.498Z,32.50
2023-02-23T13:51:06.388Z,37.87
2023-02-23T13:53:29.239Z,36.70
2023-02-23T13:55:50.351Z,40.90
2023-02-23T13:57:53.603Z,33.43
2023-02-23T13:59:56.745Z,36.23
2023-02-23T14:02:01.789Z,32.87
2023-02-23T14:04:07.921Z,37.20
2023-02-23T14:06:16.360Z,38.27
2023-02-23T14:08:24.146Z,34.03
2023-02-23T14:10:29.078Z,34.30
2023-02-23T14:12:35.824Z,33.20
2023-02-23T14:14:44.354Z,35.97
2023-02-23T14:17:11.981Z,33.20
2023-02-23T14:19:39.967Z,40.07
2023-02-23T14:21:49.881Z,36.10
2023-02-23T14:23:54.012Z,39.53
2023-02-23T14:26:16.486Z,36.30
2023-02-23T14:28:30.918Z,39.70
2023-02-23T14:30:49.766Z,36.60
2023-02-23T14:32:53.889Z,34.33
2023-02-23T14:34:57.999Z,38.73
2023-02-23T14:37:06.474Z,40.43
2023-02-23T14:39:12.004Z,41.80
2023-02-23T14:41:14.985Z,40.23
2023-02-23T14:43:43.162Z,43.50
2023-02-23T14:45:47.573Z,34.60
2023-02-23T14:47:52.486Z,38.47
2023-02-23T14:49:57.669Z,40.47
2023-02-23T14:52:08.255Z,35.10
2023-02-23T14:54:23.011Z,42.77
2023-02-23T14:56:35.450Z,37.90
2023-02-23T14:58:41.822Z,34.80
2023-02-23T15:00:45.975Z,38.97
2023-02-23T15:02:57.327Z,40.23
2023-02-23T15:05:00.320Z,35.60
2023-02-23T15:07:03.606Z,38.80
2023-02-23T15:09:08.537Z,38.90
2023-02-23T15:11:13.892Z,39.43
2023-02-23T15:13:28.966Z,43.57
2023-02-23T15:15:32.088Z,38.27
2023-02-23T15:17:35.679Z,36.50
2023-02-23T15:19:39.734Z,39.13
2023-02-23T15:21:42.725Z,40.23
2023-02-23T15:23:46.428Z,41.53
2023-02-23T15:25:51.351Z,44.40
2023-02-23T15:27:56.024Z,46.50
2023-02-23T15:29:58.927Z,38.40
2023-02-23T15:32:16.191Z,38.73
2023-02-23T15:34:21.011Z,37.53
2023-02-23T15:36:29.167Z,33.63
2023-02-23T15:38:43.558Z,39.97
2023-02-23T15:40:47.929Z,38.47
2023-02-23T15:42:54.180Z,36.07
2023-02-23T15:45:00.387Z,38.37
2023-02-23T15:47:05.866Z,37.83
2023-02-23T15:49:12.802Z,39.03
2023-02-23T15:51:23.796Z,43.80
2023-02-23T15:53:30.789Z,38.53
2023-02-23T15:55:35.924Z,37.60
2023-02-23T15:57:47.148Z,39.53
2023-02-23T15:59:54.609Z,37.97
2023-02-23T16:02:00.356Z,40.47
2023-02-23T16:04:07.202Z,39.87
2023-02-23T16:06:23.135Z,36.80
2023-02-23T16:08:27.223Z,39.30
2023-02-23T16:10:30.731Z,45.47
2023-02-23T16:12:36.029Z,37.13
2023-02-23T16:14:45.141Z,37.53
2023-02-23T16:17:01.418Z,35.53
2023-02-23T16:19:13.440Z,33.30
2023-02-23T16:21:19.062Z,45.00
2023-02-23T16:23:33.212Z,40.30
2023-02-23T16:25:36.989Z,41.60
2023-02-23T16:27:40.124Z,45.77
2023-02-23T16:29:43.457Z,37.97
2023-02-23T16:31:49.471Z,40.73
2023-02-23T16:33:56.979Z,39.93
2023-02-23T16:36:19.142Z,48.07
2023-02-23T16:38:25.846Z,51.27
2023-02-23T16:40:29.196Z,39.20
2023-02-23T16:42:34.259Z,41.47
2023-02-23T16:44:43.278Z,44.30
2023-02-23T16:47:01.515Z,49.27
2023-02-23T16:49:10.123Z,42.17
2023-02-23T16:51:16.159Z,43.53
2023-02-23T16:53:19.298Z,45.10
2023-02-23T16:55:26.427Z,48.87
2023-02-23T16:57:31.737Z,46.90
2023-02-23T16:59:35.147Z,51.13
2023-02-23T17:01:38.149Z,41.80
2023-02-23T17:06:08.322Z,43.40
2023-02-23T17:08:11.318Z,53.17
2023-02-23T17:10:24.980Z,52.70
2023-02-23T17:12:28.174Z,45.83
2023-02-23T17:14:32.547Z,54.23
2023-02-23T17:16:35.734Z,46.87
2023-02-23T17:18:42.905Z,41.13
2023-02-23T17:20:48.177Z,52.00
2023-02-23T17:22:51.358Z,47.40
2023-02-23T17:24:54.418Z,50.37
2023-02-23T17:26:57.352Z,51.57
2023-02-23T17:29:00.418Z,55.50
2023-02-23T17:31:04.208Z,47.63
2023-02-23T17:33:08.082Z,44.93
2023-02-23T17:35:11.562Z,46.80
2023-02-23T17:37:15.958Z,43.27
2023-02-23T17:39:19.214Z,47.43
2023-02-23T17:41:22.686Z,46.67
2023-02-23T17:43:26.064Z,46.90
2023-02-23T17:45:29.556Z,48.00
2023-02-23T17:47:33.886Z,45.07
2023-02-23T17:49:37.052Z,54.60
2023-02-23T17:51:40.260Z,54.80
2023-02-23T17:53:44.683Z,52.70
2023-02-23T17:55:48.478Z,45.00
2023-02-23T17:57:51.699Z,52.87
2023-02-23T17:59:54.706Z,56.20
2023-02-23T18:01:59.497Z,52.97
2023-02-23T18:04:02.827Z,67.40
2023-02-23T18:06:07.405Z,51.33
2023-02-23T18:08:10.481Z,50.90
2023-02-23T18:10:17.229Z,49.47
2023-02-23T18:12:20.969Z,55.23
2023-02-23T18:14:23.849Z,52.37
2023-02-23T18:16:27.319Z,49.03
2023-02-23T18:18:30.512Z,61.67
2023-02-23T18:20:33.721Z,58.47
2023-02-23T18:22:37.053Z,52.13
2023-02-23T18:24:41.475Z,50.50
2023-02-23T18:26:47.636Z,50.13
2023-02-23T18:28:51.392Z,51.93
2023-02-23T18:30:54.506Z,52.07
2023-02-23T18:33:04.217Z,52.00
2023-02-23T18:35:08.297Z,47.97
2023-02-23T18:37:11.355Z,49.30
2023-02-23T18:39:14.704Z,48.47
2023-02-23T18:41:18.336Z,52.83
2023-02-23T18:43:22.759Z,49.47
2023-02-23T18:45:25.761Z,53.33
2023-02-23T18:47:29.920Z,47.23
2023-02-23T18:49:33.076Z,45.97
2023-02-23T18:51:36.218Z,48.07
2023-02-23T18:53:39.709Z,51.83
2023-02-23T18:55:44.791Z,46.90
2023-02-23T18:57:48.002Z,45.50
2023-02-23T18:59:52.686Z,45.43
2023-02-23T19:01:55.755Z,61.77
2023-02-23T19:04:01.599Z,45.53
2023-02-23T19:06:09.024Z,41.30
2023-02-23T19:08:15.981Z,47.50
2023-02-23T19:10:19.486Z,44.20
2023-02-23T19:12:22.472Z,48.83
2023-02-23T19:14:46.324Z,46.30
2023-02-23T19:16:50.736Z,50.37
2023-02-23T19:18:53.762Z,48.97
2023-02-23T19:20:56.964Z,48.33
2023-02-23T19:23:00.084Z,51.90
2023-02-23T19:25:03.624Z,51.70
2023-02-23T19:27:09.997Z,47.70
2023-02-23T19:29:13.346Z,40.07
2023-02-23T19:31:20.749Z,54.90
2023-02-23T19:33:28.008Z,48.23
2023-02-23T19:35:33.306Z,54.67
2023-02-23T19:37:36.358Z,47.77
2023-02-23T19:39:39.640Z,54.43
2023-02-23T19:41:44.644Z,49.37
2023-02-23T19:43:49.461Z,52.20
2023-02-23T19:45:52.926Z,52.77
2023-02-23T19:47:56.664Z,52.40
2023-02-23T19:50:01.216Z,63.43
2023-02-23T19:52:04.879Z,55.63
2023-02-23T19:54:07.982Z,51.77
2023-02-23T19:56:13.704Z,53.50
2023-02-23T19:58:17.888Z,51.90
2023-02-23T20:00:21.281Z,51.50
2023-02-23T20:02:24.710Z,55.57
2023-02-23T20:04:28.538Z,52.27
2023-02-23T20:06:36.265Z,46.70
2023-02-23T20:08:39.185Z,46.40
2023-02-23T20:10:42.825Z,60.47
2023-02-23T20:12:46.378Z,56.83
2023-02-23T20:14:49.805Z,60.60
2023-02-23T20:16:54.225Z,51.97
2023-02-23T20:18:57.700Z,61.93
2023-02-23T20:21:01.196Z,51.33
2023-02-23T20:23:07.779Z,53.87
2023-02-23T20:25:16.062Z,61.80
2023-02-23T20:27:23.255Z,54.77
2023-02-23T20:29:28.118Z,60.27
2023-02-23T20:31:37.202Z,64.17
2023-02-23T20:33:40.380Z,52.47
2023-02-23T20:35:46.418Z,51.33
2023-02-23T20:37:49.917Z,57.10
2023-02-23T20:39:54.311Z,57.13
2023-02-23T20:41:57.343Z,61.87
2023-02-23T20:44:01.169Z,48.93
2023-02-23T20:46:04.854Z,53.17
2023-02-23T20:48:09.586Z,50.93
2023-02-23T20:50:16.098Z,56.00
2023-02-23T20:52:19.184Z,55.10
2023-02-23T20:54:22.682Z,52.00
2023-02-23T20:56:32.932Z,53.63
2023-02-23T20:58:36.082Z,54.20
2023-02-23T21:00:40.106Z,49.47
2023-02-23T21:02:43.144Z,45.30
2023-02-23T21:04:46.377Z,48.43
2023-02-23T21:06:49.369Z,55.40
2023-02-23T21:08:56.028Z,46.50
2023-02-23T21:10:59.272Z,44.03
2023-02-23T21:13:04.124Z,44.93
2023-02-23T21:15:09.324Z,48.03
2023-02-23T21:17:12.384Z,47.17
2023-02-23T21:19:17.110Z,50.97
2023-02-23T21:21:20.299Z,46.23
2023-02-23T21:23:23.751Z,48.37
2023-02-23T21:25:28.245Z,44.50
2023-02-23T21:27:32.309Z,49.50
2023-02-23T21:29:44.815Z,49.17
2023-02-23T21:31:48.422Z,51.77
2023-02-23T21:33:51.468Z,44.53
2023-02-23T21:35:59.118Z,48.77
2023-02-23T21:38:02.283Z,37.80
2023-02-23T21:40:09.354Z,31.57
2023-02-23T21:42:12.359Z,32.57
2023-02-23T21:44:15.234Z,31.57
2023-02-23T21:46:21.571Z,36.00
2023-02-23T21:48:33.399Z,32.80
2023-02-23T21:50:36.392Z,36.27
2023-02-23T21:52:39.388Z,42.17
2023-02-23T21:54:46.659Z,35.33
2023-02-23T21:56:50.112Z,40.67
2023-02-23T21:58:54.871Z,36.10
2023-02-23T22:00:58.350Z,50.00
2023-02-23T22:03:03.482Z,45.03
2023-02-23T22:05:07.625Z,47.43
2023-02-23T22:07:10.717Z,45.73
2023-02-23T22:09:15.460Z,58.00
2023-02-23T22:11:20.486Z,48.93
2023-02-23T22:13:23.665Z,57.57
2023-02-23T22:15:28.292Z,58.03
2023-02-23T22:17:32.831Z,53.23
2023-02-23T22:19:37.447Z,46.50
2023-02-23T22:21:42.127Z,61.53
2023-02-23T22:23:47.945Z,51.90
2023-02-23T22:25:51.248Z,53.03
2023-02-23T22:27:54.129Z,49.10
2023-02-23T22:29:59.909Z,46.43
2023-02-23T22:32:02.975Z,47.83
2023-02-23T22:34:07.303Z,30.97
2023-02-23T22:36:14.930Z,41.07
2023-02-23T22:38:19.751Z,33.07
2023-02-23T22:40:23.138Z,32.57
2023-02-23T22:42:29.542Z,37.80
2023-02-23T22:44:32.482Z,30.33
2023-02-23T22:46:38.886Z,43.00
2023-02-23T22:48:44.925Z,31.13
2023-02-23T22:50:48.157Z,33.40
2023-02-23T22:52:53.536Z,33.70
2023-02-23T22:54:57.696Z,35.97
2023-02-23T22:57:00.836Z,38.20
2023-02-23T22:59:10.821Z,22.07
2023-02-23T23:01:14.759Z,32.90
2023-02-23T23:03:18.921Z,25.83
2023-02-23T23:05:22.917Z,27.43
2023-02-23T23:07:26.472Z,27.50
2023-02-23T23:09:33.299Z,36.70
2023-02-23T23:11:37.341Z,24.40
2023-02-23T23:13:44.717Z,26.67
2023-02-23T23:15:49.347Z,29.57
2023-02-23T23:17:53.849Z,29.80
2023-02-23T23:19:56.789Z,22.53
2023-02-23T23:22:00.581Z,23.10
2023-02-23T23:24:06.223Z,20.33
2023-02-23T23:26:14.719Z,21.40
2023-02-23T23:28:19.073Z,25.27
2023-02-23T23:30:25.956Z,18.80
2023-02-23T23:32:30.334Z,25.43
2023-02-23T23:34:33.712Z,20.73
2023-02-23T23:36:43.018Z,35.53
2023-02-23T23:38:46.085Z,28.10
2023-02-23T23:40:49.427Z,32.87
2023-02-23T23:42:55.818Z,23.90
2023-02-23T23:44:58.890Z,29.50
2023-02-23T23:47:05.329Z,43.47
2023-02-23T23:49:11.291Z,32.73
2023-02-23T23:51:15.173Z,33.40
2023-02-23T23:53:19.808Z,34.30
2023-02-23T23:55:22.832Z,28.13
2023-02-23T23:57:26.083Z,34.90
2023-02-23T23:59:31.903Z,33.40
